sensor_id;sensor_type;location;lat;lon;timestamp;temperature;humidity
12452;DHT22;6291;48.924;12.204;2023-07-08T00:02:43;18.00;99.90
12452;DHT22;6291;48.924;12.204;2023-07-08T00:07:47;18.00;99.90
12452;DHT22;6291;48.924;12.204;2023-07-08T00:12:52;17.80;99.90
12452;DHT22;6291;48.924;12.204;2023-07-08T00:17:57;17.80;99.90
12452;DHT22;6291;48.924;12.204;2023-07-08T00:23:00;17.70;99.90
12452;DHT22;6291;48.924;12.204;2023-07-08T00:28:08;17.60;99.90
12452;DHT22;6291;48.924;12.204;2023-07-08T00:33:13;17.40;99.90
12452;DHT22;6291;48.924;12.204;2023-07-08T00:38:21;17.20;99.90
12452;DHT22;6291;48.924;12.204;2023-07-08T00:43:35;17.20;99.90
12452;DHT22;6291;48.924;12.204;2023-07-08T00:48:41;17.20;99.90
12452;DHT22;6291;48.924;12.204;2023-07-08T00:53:45;17.20;99.90
12452;DHT22;6291;48.924;12.204;2023-07-08T00:58:51;17.00;99.90
12452;DHT22;6291;48.924;12.204;2023-07-08T01:03:59;16.90;99.90
12452;DHT22;6291;48.924;12.204;2023-07-08T01:09:03;16.70;99.90
12452;DHT22;6291;48.924;12.204;2023-07-08T01:14:12;16.70;99.90
12452;DHT22;6291;48.924;12.204;2023-07-08T01:19:21;16.70;99.90
12452;DHT22;6291;48.924;12.204;2023-07-08T01:24:37;16.50;99.90
12452;DHT22;6291;48.924;12.204;2023-07-08T01:29:42;16.60;99.90
12452;DHT22;6291;48.924;12.204;2023-07-08T01:34:47;16.70;99.90
12452;DHT22;6291;48.924;12.204;2023-07-08T01:40:31;16.60;99.90
12452;DHT22;6291;48.924;12.204;2023-07-08T01:45:39;19.50;99.90
12452;DHT22;6291;48.924;12.204;2023-07-08T01:50:45;16.50;99.90
12452;DHT22;6291;48.924;12.204;2023-07-08T01:55:51;16.50;99.90
12452;DHT22;6291;48.924;12.204;2023-07-08T02:00:55;16.60;99.90
12452;DHT22;6291;48.924;12.204;2023-07-08T02:05:59;16.50;99.90
12452;DHT22;6291;48.924;12.204;2023-07-08T02:11:03;16.20;99.90
12452;DHT22;6291;48.924;12.204;2023-07-08T02:16:07;16.10;99.90
12452;DHT22;6291;48.924;12.204;2023-07-08T02:21:11;16.00;99.90
12452;DHT22;6291;48.924;12.204;2023-07-08T02:26:16;15.90;99.90
12452;DHT22;6291;48.924;12.204;2023-07-08T02:31:19;15.80;99.90
12452;DHT22;6291;48.924;12.204;2023-07-08T02:36:23;15.50;99.90
12452;DHT22;6291;48.924;12.204;2023-07-08T02:41:28;15.50;99.90
12452;DHT22;6291;48.924;12.204;2023-07-08T02:46:31;15.60;99.90
12452;DHT22;6291;48.924;12.204;2023-07-08T02:51:34;15.60;99.90
12452;DHT22;6291;48.924;12.204;2023-07-08T02:56:39;15.50;99.90
12452;DHT22;6291;48.924;12.204;2023-07-08T03:01:42;15.60;99.90
12452;DHT22;6291;48.924;12.204;2023-07-08T03:06:50;15.70;99.90
12452;DHT22;6291;48.924;12.204;2023-07-08T03:11:55;15.50;99.90
12452;DHT22;6291;48.924;12.204;2023-07-08T03:16:58;15.40;99.90
12452;DHT22;6291;48.924;12.204;2023-07-08T03:22:02;15.50;99.90
12452;DHT22;6291;48.924;12.204;2023-07-08T03:27:08;15.40;99.90
12452;DHT22;6291;48.924;12.204;2023-07-08T03:32:12;15.30;99.90
12452;DHT22;6291;48.924;12.204;2023-07-08T03:37:16;15.20;99.90
12452;DHT22;6291;48.924;12.204;2023-07-08T03:42:21;15.20;99.90
12452;DHT22;6291;48.924;12.204;2023-07-08T03:47:24;15.30;99.90
12452;DHT22;6291;48.924;12.204;2023-07-08T03:52:28;15.30;99.90
12452;DHT22;6291;48.924;12.204;2023-07-08T03:57:33;15.20;99.90
12452;DHT22;6291;48.924;12.204;2023-07-08T04:02:36;15.20;99.90
12452;DHT22;6291;48.924;12.204;2023-07-08T04:07:40;15.40;99.90
12452;DHT22;6291;48.924;12.204;2023-07-08T04:12:47;15.60;99.90
12452;DHT22;6291;48.924;12.204;2023-07-08T04:17:50;15.70;99.90
12452;DHT22;6291;48.924;12.204;2023-07-08T04:22:56;15.70;99.90
12452;DHT22;6291;48.924;12.204;2023-07-08T04:28:00;15.70;99.90
12452;DHT22;6291;48.924;12.204;2023-07-08T04:33:03;16.00;99.90
12452;DHT22;6291;48.924;12.204;2023-07-08T04:38:14;16.20;99.90
12452;DHT22;6291;48.924;12.204;2023-07-08T04:43:21;16.40;99.90
12452;DHT22;6291;48.924;12.204;2023-07-08T04:48:25;12.40;99.90
12452;DHT22;6291;48.924;12.204;2023-07-08T04:53:28;16.60;99.90
12452;DHT22;6291;48.924;12.204;2023-07-08T04:58:33;16.60;99.90
12452;DHT22;6291;48.924;12.204;2023-07-08T05:03:36;16.80;99.90
12452;DHT22;6291;48.924;12.204;2023-07-08T05:08:39;17.30;99.90
12452;DHT22;6291;48.924;12.204;2023-07-08T05:13:44;17.60;99.90
12452;DHT22;6291;48.924;12.204;2023-07-08T05:18:48;17.90;99.90
12452;DHT22;6291;48.924;12.204;2023-07-08T05:23:51;22.20;99.90
12452;DHT22;6291;48.924;12.204;2023-07-08T05:28:56;18.90;99.90
12452;DHT22;6291;48.924;12.204;2023-07-08T05:34:00;19.30;99.90
12452;DHT22;6291;48.924;12.204;2023-07-08T05:39:03;20.10;99.90
12452;DHT22;6291;48.924;12.204;2023-07-08T05:44:09;19.60;99.90
12452;DHT22;6291;48.924;12.204;2023-07-08T05:49:12;19.20;99.90
12452;DHT22;6291;48.924;12.204;2023-07-08T05:54:15;19.10;99.90
12452;DHT22;6291;48.924;12.204;2023-07-08T05:59:20;19.40;99.90
12452;DHT22;6291;48.924;12.204;2023-07-08T06:04:24;21.00;99.90
12452;DHT22;6291;48.924;12.204;2023-07-08T06:09:27;20.60;99.90
12452;DHT22;6291;48.924;12.204;2023-07-08T06:14:35;20.30;99.90
12452;DHT22;6291;48.924;12.204;2023-07-08T06:19:40;21.30;99.90
12452;DHT22;6291;48.924;12.204;2023-07-08T06:24:43;23.30;99.90
12452;DHT22;6291;48.924;12.204;2023-07-08T06:29:50;23.30;99.90
12452;DHT22;6291;48.924;12.204;2023-07-08T06:34:53;25.20;99.90
12452;DHT22;6291;48.924;12.204;2023-07-08T06:39:57;25.00;99.90
12452;DHT22;6291;48.924;12.204;2023-07-08T06:45:01;24.80;99.90
12452;DHT22;6291;48.924;12.204;2023-07-08T06:50:06;25.20;99.90
12452;DHT22;6291;48.924;12.204;2023-07-08T06:55:10;26.20;99.90
12452;DHT22;6291;48.924;12.204;2023-07-08T07:00:16;27.00;99.90
12452;DHT22;6291;48.924;12.204;2023-07-08T07:05:19;27.00;99.90
12452;DHT22;6291;48.924;12.204;2023-07-08T07:10:24;28.00;99.90
12452;DHT22;6291;48.924;12.204;2023-07-08T07:15:29;28.10;99.90
12452;DHT22;6291;48.924;12.204;2023-07-08T07:20:37;28.70;99.90
12452;DHT22;6291;48.924;12.204;2023-07-08T07:25:40;28.10;99.90
12452;DHT22;6291;48.924;12.204;2023-07-08T07:30:46;28.10;99.90
12452;DHT22;6291;48.924;12.204;2023-07-08T07:35:49;28.50;99.90
12452;DHT22;6291;48.924;12.204;2023-07-08T07:40:53;29.70;99.90
12452;DHT22;6291;48.924;12.204;2023-07-08T07:45:58;29.60;99.90
12452;DHT22;6291;48.924;12.204;2023-07-08T07:51:01;30.20;99.90
12452;DHT22;6291;48.924;12.204;2023-07-08T07:56:05;29.00;99.90
12452;DHT22;6291;48.924;12.204;2023-07-08T08:01:10;29.50;99.90
12452;DHT22;6291;48.924;12.204;2023-07-08T08:06:15;30.10;99.90
12452;DHT22;6291;48.924;12.204;2023-07-08T08:11:20;30.20;99.90
12452;DHT22;6291;48.924;12.204;2023-07-08T08:16:24;29.30;99.90
12452;DHT22;6291;48.924;12.204;2023-07-08T08:21:28;30.20;99.90
12452;DHT22;6291;48.924;12.204;2023-07-08T08:26:32;30.20;99.90
12452;DHT22;6291;48.924;12.204;2023-07-08T08:31:37;29.60;99.90
12452;DHT22;6291;48.924;12.204;2023-07-08T08:36:40;29.70;99.90
12452;DHT22;6291;48.924;12.204;2023-07-08T08:41:44;31.30;99.90
12452;DHT22;6291;48.924;12.204;2023-07-08T08:46:52;32.10;99.90
12452;DHT22;6291;48.924;12.204;2023-07-08T08:51:58;32.10;99.90
12452;DHT22;6291;48.924;12.204;2023-07-08T08:57:09;31.10;99.90
12452;DHT22;6291;48.924;12.204;2023-07-08T09:02:32;30.80;99.90
12452;DHT22;6291;48.924;12.204;2023-07-08T09:07:43;30.60;99.90
12452;DHT22;6291;48.924;12.204;2023-07-08T09:12:49;30.20;99.90
12452;DHT22;6291;48.924;12.204;2023-07-08T09:17:58;30.40;99.90
12452;DHT22;6291;48.924;12.204;2023-07-08T09:23:11;28.20;99.90
12452;DHT22;6291;48.924;12.204;2023-07-08T09:28:21;29.40;99.90
12452;DHT22;6291;48.924;12.204;2023-07-08T09:33:27;29.70;99.90
12452;DHT22;6291;48.924;12.204;2023-07-08T09:38:33;29.30;99.90
12452;DHT22;6291;48.924;12.204;2023-07-08T09:43:38;29.50;99.90
12452;DHT22;6291;48.924;12.204;2023-07-08T09:48:44;29.60;99.90
12452;DHT22;6291;48.924;12.204;2023-07-08T09:53:49;29.60;99.90
12452;DHT22;6291;48.924;12.204;2023-07-08T09:58:52;29.60;99.90
12452;DHT22;6291;48.924;12.204;2023-07-08T10:04:00;30.20;99.90
12452;DHT22;6291;48.924;12.204;2023-07-08T10:09:09;29.90;99.90
12452;DHT22;6291;48.924;12.204;2023-07-08T10:14:24;29.40;99.90
12452;DHT22;6291;48.924;12.204;2023-07-08T10:19:30;28.70;99.90
12452;DHT22;6291;48.924;12.204;2023-07-08T10:24:48;29.40;99.90
12452;DHT22;6291;48.924;12.204;2023-07-08T10:29:58;29.80;99.90
12452;DHT22;6291;48.924;12.204;2023-07-08T10:35:16;30.30;99.90
12452;DHT22;6291;48.924;12.204;2023-07-08T10:40:31;30.90;99.90
12452;DHT22;6291;48.924;12.204;2023-07-08T10:45:41;30.80;99.90
12452;DHT22;6291;48.924;12.204;2023-07-08T10:50:59;31.40;99.90
12452;DHT22;6291;48.924;12.204;2023-07-08T10:56:10;31.70;99.90
12452;DHT22;6291;48.924;12.204;2023-07-08T11:01:23;29.50;99.90
12452;DHT22;6291;48.924;12.204;2023-07-08T11:06:40;29.80;99.90
12452;DHT22;6291;48.924;12.204;2023-07-08T11:11:51;30.60;99.90
12452;DHT22;6291;48.924;12.204;2023-07-08T11:17:04;30.70;99.90
12452;DHT22;6291;48.924;12.204;2023-07-08T11:22:14;31.10;99.90
12452;DHT22;6291;48.924;12.204;2023-07-08T11:27:23;31.10;99.90
12452;DHT22;6291;48.924;12.204;2023-07-08T11:32:32;31.20;99.90
12452;DHT22;6291;48.924;12.204;2023-07-08T11:37:38;30.20;99.90
12452;DHT22;6291;48.924;12.204;2023-07-08T11:42:44;30.20;99.90
12452;DHT22;6291;48.924;12.204;2023-07-08T11:48:06;29.80;99.90
12452;DHT22;6291;48.924;12.204;2023-07-08T11:53:13;30.40;99.90
12452;DHT22;6291;48.924;12.204;2023-07-08T11:58:21;31.80;99.90
12452;DHT22;6291;48.924;12.204;2023-07-08T12:03:32;32.10;99.90
12452;DHT22;6291;48.924;12.204;2023-07-08T12:08:39;32.20;99.90
12452;DHT22;6291;48.924;12.204;2023-07-08T12:13:45;31.40;99.90
12452;DHT22;6291;48.924;12.204;2023-07-08T12:18:49;30.80;99.90
12452;DHT22;6291;48.924;12.204;2023-07-08T12:24:02;31.30;99.90
12452;DHT22;6291;48.924;12.204;2023-07-08T12:29:08;31.40;99.90
12452;DHT22;6291;48.924;12.204;2023-07-08T12:34:15;31.20;99.90
12452;DHT22;6291;48.924;12.204;2023-07-08T12:39:20;31.10;99.90
12452;DHT22;6291;48.924;12.204;2023-07-08T12:44:26;30.90;99.90
12452;DHT22;6291;48.924;12.204;2023-07-08T12:49:29;30.70;99.90
12452;DHT22;6291;48.924;12.204;2023-07-08T12:54:34;30.70;99.90
12452;DHT22;6291;48.924;12.204;2023-07-08T12:59:38;30.50;99.90
12452;DHT22;6291;48.924;12.204;2023-07-08T13:04:44;30.00;99.90
12452;DHT22;6291;48.924;12.204;2023-07-08T13:09:51;29.30;99.90
12452;DHT22;6291;48.924;12.204;2023-07-08T13:14:58;28.70;99.90
12452;DHT22;6291;48.924;12.204;2023-07-08T13:20:04;29.70;99.90
12452;DHT22;6291;48.924;12.204;2023-07-08T13:25:15;30.50;99.90
12452;DHT22;6291;48.924;12.204;2023-07-08T13:30:26;31.00;99.90
12452;DHT22;6291;48.924;12.204;2023-07-08T13:35:36;31.30;99.90
12452;DHT22;6291;48.924;12.204;2023-07-08T13:40:44;30.00;99.90
12452;DHT22;6291;48.924;12.204;2023-07-08T13:45:48;31.00;99.90
12452;DHT22;6291;48.924;12.204;2023-07-08T13:50:57;31.70;99.90
12452;DHT22;6291;48.924;12.204;2023-07-08T13:56:19;31.90;99.90
12452;DHT22;6291;48.924;12.204;2023-07-08T14:01:25;31.60;99.90
12452;DHT22;6291;48.924;12.204;2023-07-08T14:06:35;29.90;99.90
12452;DHT22;6291;48.924;12.204;2023-07-08T14:11:41;30.20;99.90
12452;DHT22;6291;48.924;12.204;2023-07-08T14:16:47;29.60;99.90
12452;DHT22;6291;48.924;12.204;2023-07-08T14:21:57;29.40;99.90
12452;DHT22;6291;48.924;12.204;2023-07-08T14:27:06;29.80;99.90
12452;DHT22;6291;48.924;12.204;2023-07-08T14:32:20;29.30;99.90
12452;DHT22;6291;48.924;12.204;2023-07-08T14:37:24;29.70;99.90
12452;DHT22;6291;48.924;12.204;2023-07-08T14:42:29;30.30;99.90
12452;DHT22;6291;48.924;12.204;2023-07-08T14:47:33;29.50;99.90
12452;DHT22;6291;48.924;12.204;2023-07-08T14:52:36;29.00;99.90
12452;DHT22;6291;48.924;12.204;2023-07-08T14:57:44;29.20;99.90
12452;DHT22;6291;48.924;12.204;2023-07-08T15:02:50;29.50;99.90
12452;DHT22;6291;48.924;12.204;2023-07-08T15:07:55;28.90;99.90
12452;DHT22;6291;48.924;12.204;2023-07-08T15:13:01;28.80;99.90
12452;DHT22;6291;48.924;12.204;2023-07-08T15:18:11;29.30;99.90
12452;DHT22;6291;48.924;12.204;2023-07-08T15:23:15;29.50;99.90
12452;DHT22;6291;48.924;12.204;2023-07-08T15:28:25;29.90;99.90
12452;DHT22;6291;48.924;12.204;2023-07-08T15:33:36;30.00;99.90
12452;DHT22;6291;48.924;12.204;2023-07-08T15:38:40;29.80;99.90
12452;DHT22;6291;48.924;12.204;2023-07-08T15:43:46;29.90;99.90
12452;DHT22;6291;48.924;12.204;2023-07-08T15:48:50;29.80;99.90
12452;DHT22;6291;48.924;12.204;2023-07-08T15:53:54;30.20;99.90
12452;DHT22;6291;48.924;12.204;2023-07-08T15:58:59;30.60;99.90
12452;DHT22;6291;48.924;12.204;2023-07-08T16:04:03;30.10;99.90
12452;DHT22;6291;48.924;12.204;2023-07-08T16:09:07;30.30;99.90
12452;DHT22;6291;48.924;12.204;2023-07-08T16:14:14;31.10;99.90
12452;DHT22;6291;48.924;12.204;2023-07-08T16:19:18;31.20;99.50
12452;DHT22;6291;48.924;12.204;2023-07-08T16:24:21;31.30;97.90
12452;DHT22;6291;48.924;12.204;2023-07-08T16:29:27;31.60;95.50
12452;DHT22;6291;48.924;12.204;2023-07-08T16:34:31;31.20;98.20
12452;DHT22;6291;48.924;12.204;2023-07-08T16:39:34;31.10;97.30
12452;DHT22;6291;48.924;12.204;2023-07-08T16:44:39;30.50;99.90
12452;DHT22;6291;48.924;12.204;2023-07-08T16:49:43;29.80;99.90
12452;DHT22;6291;48.924;12.204;2023-07-08T16:54:47;29.70;99.90
12452;DHT22;6291;48.924;12.204;2023-07-08T16:59:52;29.70;99.90
12452;DHT22;6291;48.924;12.204;2023-07-08T17:04:55;29.70;99.90
12452;DHT22;6291;48.924;12.204;2023-07-08T17:09:59;29.70;99.90
12452;DHT22;6291;48.924;12.204;2023-07-08T17:15:05;29.80;99.90
12452;DHT22;6291;48.924;12.204;2023-07-08T17:20:15;29.70;99.90
12452;DHT22;6291;48.924;12.204;2023-07-08T17:25:23;29.60;99.90
12452;DHT22;6291;48.924;12.204;2023-07-08T17:30:28;29.40;99.90
12452;DHT22;6291;48.924;12.204;2023-07-08T17:35:32;29.30;99.90
12452;DHT22;6291;48.924;12.204;2023-07-08T17:40:35;29.10;99.90
12452;DHT22;6291;48.924;12.204;2023-07-08T17:45:42;28.70;99.90
12452;DHT22;6291;48.924;12.204;2023-07-08T17:50:46;28.60;99.90
12452;DHT22;6291;48.924;12.204;2023-07-08T17:55:50;28.50;99.90
12452;DHT22;6291;48.924;12.204;2023-07-08T18:00:55;28.60;99.90
12452;DHT22;6291;48.924;12.204;2023-07-08T18:05:58;28.50;99.90
12452;DHT22;6291;48.924;12.204;2023-07-08T18:11:06;28.50;99.90
12452;DHT22;6291;48.924;12.204;2023-07-08T18:16:12;28.50;99.90
12452;DHT22;6291;48.924;12.204;2023-07-08T18:21:18;28.00;99.90
12452;DHT22;6291;48.924;12.204;2023-07-08T18:26:23;27.80;99.90
12452;DHT22;6291;48.924;12.204;2023-07-08T18:31:30;27.60;99.90
12452;DHT22;6291;48.924;12.204;2023-07-08T18:36:35;27.20;99.90
12452;DHT22;6291;48.924;12.204;2023-07-08T18:41:46;26.80;99.90
12452;DHT22;6291;48.924;12.204;2023-07-08T18:46:55;26.50;99.90
12452;DHT22;6291;48.924;12.204;2023-07-08T18:51:59;26.30;99.90
12452;DHT22;6291;48.924;12.204;2023-07-08T18:57:03;25.70;99.90
12452;DHT22;6291;48.924;12.204;2023-07-08T19:02:28;25.30;99.90
12452;DHT22;6291;48.924;12.204;2023-07-08T19:07:33;24.90;99.90
12452;DHT22;6291;48.924;12.204;2023-07-08T19:12:36;24.70;99.90
12452;DHT22;6291;48.924;12.204;2023-07-08T19:17:41;24.70;99.90
12452;DHT22;6291;48.924;12.204;2023-07-08T19:22:45;24.70;99.90
12452;DHT22;6291;48.924;12.204;2023-07-08T19:27:50;24.50;99.90
12452;DHT22;6291;48.924;12.204;2023-07-08T19:32:56;24.50;99.90
12452;DHT22;6291;48.924;12.204;2023-07-08T19:38:00;24.40;99.90
12452;DHT22;6291;48.924;12.204;2023-07-08T19:43:04;24.20;99.90
12452;DHT22;6291;48.924;12.204;2023-07-08T19:48:10;24.00;99.90
12452;DHT22;6291;48.924;12.204;2023-07-08T19:53:14;23.70;99.90
12452;DHT22;6291;48.924;12.204;2023-07-08T19:58:17;23.60;99.90
12452;DHT22;6291;48.924;12.204;2023-07-08T20:03:22;23.50;99.90
12452;DHT22;6291;48.924;12.204;2023-07-08T20:08:29;23.30;99.90
12452;DHT22;6291;48.924;12.204;2023-07-08T20:13:33;23.10;99.90
12452;DHT22;6291;48.924;12.204;2023-07-08T20:18:38;21.40;99.90
12452;DHT22;6291;48.924;12.204;2023-07-08T20:23:42;22.80;99.90
12452;DHT22;6291;48.924;12.204;2023-07-08T20:28:46;22.70;99.90
12452;DHT22;6291;48.924;12.204;2023-07-08T20:33:51;22.60;99.90
12452;DHT22;6291;48.924;12.204;2023-07-08T20:38:56;22.40;99.90
12452;DHT22;6291;48.924;12.204;2023-07-08T20:44:00;22.20;99.90
12452;DHT22;6291;48.924;12.204;2023-07-08T20:49:08;22.10;99.90
12452;DHT22;6291;48.924;12.204;2023-07-08T20:54:13;22.00;99.90
12452;DHT22;6291;48.924;12.204;2023-07-08T20:59:18;22.00;99.90
12452;DHT22;6291;48.924;12.204;2023-07-08T21:04:22;22.00;99.90
12452;DHT22;6291;48.924;12.204;2023-07-08T21:09:26;21.60;99.90
12452;DHT22;6291;48.924;12.204;2023-07-08T21:14:33;21.50;99.90
12452;DHT22;6291;48.924;12.204;2023-07-08T21:19:38;21.40;99.90
12452;DHT22;6291;48.924;12.204;2023-07-08T21:24:41;21.50;99.90
12452;DHT22;6291;48.924;12.204;2023-07-08T21:29:44;21.10;99.90
12452;DHT22;6291;48.924;12.204;2023-07-08T21:34:49;20.80;99.90
12452;DHT22;6291;48.924;12.204;2023-07-08T21:39:53;20.70;99.90
12452;DHT22;6291;48.924;12.204;2023-07-08T21:44:56;20.50;99.90
12452;DHT22;6291;48.924;12.204;2023-07-08T21:50:01;20.40;99.90
12452;DHT22;6291;48.924;12.204;2023-07-08T21:55:13;20.30;99.90
12452;DHT22;6291;48.924;12.204;2023-07-08T22:00:17;20.30;99.90
12452;DHT22;6291;48.924;12.204;2023-07-08T22:05:41;19.90;99.90
12452;DHT22;6291;48.924;12.204;2023-07-08T22:10:46;19.70;99.90
12452;DHT22;6291;48.924;12.204;2023-07-08T22:15:50;19.80;99.90
12452;DHT22;6291;48.924;12.204;2023-07-08T22:20:58;19.70;99.90
12452;DHT22;6291;48.924;12.204;2023-07-08T22:26:02;19.50;99.90
12452;DHT22;6291;48.924;12.204;2023-07-08T22:31:16;19.40;99.90
12452;DHT22;6291;48.924;12.204;2023-07-08T22:36:25;19.50;99.90
12452;DHT22;6291;48.924;12.204;2023-07-08T22:41:31;19.50;99.90
12452;DHT22;6291;48.924;12.204;2023-07-08T22:46:37;19.40;99.90
12452;DHT22;6291;48.924;12.204;2023-07-08T22:51:42;19.40;99.90
12452;DHT22;6291;48.924;12.204;2023-07-08T22:56:47;19.40;99.90
12452;DHT22;6291;48.924;12.204;2023-07-08T23:01:50;19.30;99.90
12452;DHT22;6291;48.924;12.204;2023-07-08T23:06:55;19.00;99.90
12452;DHT22;6291;48.924;12.204;2023-07-08T23:11:58;19.00;99.90
12452;DHT22;6291;48.924;12.204;2023-07-08T23:17:02;18.90;99.90
12452;DHT22;6291;48.924;12.204;2023-07-08T23:22:15;18.80;99.90
12452;DHT22;6291;48.924;12.204;2023-07-08T23:27:22;18.70;99.90
12452;DHT22;6291;48.924;12.204;2023-07-08T23:32:26;18.70;99.90
12452;DHT22;6291;48.924;12.204;2023-07-08T23:37:31;18.60;99.90
12452;DHT22;6291;48.924;12.204;2023-07-08T23:42:34;18.60;99.90
12452;DHT22;6291;48.924;12.204;2023-07-08T23:47:38;18.40;99.90
12452;DHT22;6291;48.924;12.204;2023-07-08T23:52:42;18.50;99.90
12452;DHT22;6291;48.924;12.204;2023-07-08T23:57:46;18.70;99.90
